sensor_id;sensor_type;location;lat;lon;timestamp;P1;durP1;ratioP1;P2;durP2;ratioP2
4391;SDS011;2210;51.938;8.488;2023-01-29T00:01:31;19.20;;;15.60;;
4391;SDS011;2210;51.938;8.488;2023-01-29T00:05:35;24.73;;;15.80;;
4391;SDS011;2210;51.938;8.488;2023-01-29T00:09:41;18.87;;;14.73;;
4391;SDS011;2210;51.938;8.488;2023-01-29T00:13:44;24.83;;;17.17;;
4391;SDS011;2210;51.938;8.488;2023-01-29T00:17:48;18.33;;;15.80;;
4391;SDS011;2210;51.938;8.488;2023-01-29T00:21:52;20.10;;;16.30;;
4391;SDS011;2210;51.938;8.488;2023-01-29T00:25:58;18.93;;;16.60;;
4391;SDS011;2210;51.938;8.488;2023-01-29T00:29:58;21.33;;;16.03;;
4391;SDS011;2210;51.938;8.488;2023-01-29T00:34:10;20.20;;;16.70;;
4391;SDS011;2210;51.938;8.488;2023-01-29T00:38:14;20.25;;;16.25;;
4391;SDS011;2210;51.938;8.488;2023-01-29T00:42:20;18.80;;;15.20;;
4391;SDS011;2210;51.938;8.488;2023-01-29T00:46:48;17.77;;;14.90;;
4391;SDS011;2210;51.938;8.488;2023-01-29T00:50:51;21.10;;;15.87;;
4391;SDS011;2210;51.938;8.488;2023-01-29T00:54:55;19.30;;;16.00;;
4391;SDS011;2210;51.938;8.488;2023-01-29T00:58:57;19.77;;;16.10;;
4391;SDS011;2210;51.938;8.488;2023-01-29T01:02:57;19.00;;;15.43;;
4391;SDS011;2210;51.938;8.488;2023-01-29T01:07:22;20.20;;;17.07;;
4391;SDS011;2210;51.938;8.488;2023-01-29T01:11:32;19.10;;;15.63;;
4391;SDS011;2210;51.938;8.488;2023-01-29T01:15:36;23.50;;;16.67;;
4391;SDS011;2210;51.938;8.488;2023-01-29T01:19:47;23.70;;;16.97;;
4391;SDS011;2210;51.938;8.488;2023-01-29T01:23:50;23.27;;;16.57;;
4391;SDS011;2210;51.938;8.488;2023-01-29T01:27:54;20.80;;;15.50;;
4391;SDS011;2210;51.938;8.488;2023-01-29T01:31:56;22.30;;;16.43;;
4391;SDS011;2210;51.938;8.488;2023-01-29T01:35:59;23.87;;;15.70;;
4391;SDS011;2210;51.938;8.488;2023-01-29T01:40:04;19.40;;;15.23;;
4391;SDS011;2210;51.938;8.488;2023-01-29T01:48:53;20.83;;;16.83;;
4391;SDS011;2210;51.938;8.488;2023-01-29T01:52:59;19.57;;;16.47;;
4391;SDS011;2210;51.938;8.488;2023-01-29T01:57:34;23.50;;;16.27;;
4391;SDS011;2210;51.938;8.488;2023-01-29T02:01:42;18.43;;;14.63;;
4391;SDS011;2210;51.938;8.488;2023-01-29T02:05:48;18.73;;;15.23;;
4391;SDS011;2210;51.938;8.488;2023-01-29T02:10:09;22.40;;;16.03;;
4391;SDS011;2210;51.938;8.488;2023-01-29T02:14:16;21.87;;;16.67;;
4391;SDS011;2210;51.938;8.488;2023-01-29T02:18:16;27.53;;;18.13;;
4391;SDS011;2210;51.938;8.488;2023-01-29T02:22:26;22.87;;;16.30;;
4391;SDS011;2210;51.938;8.488;2023-01-29T02:27:02;24.30;;;17.97;;
4391;SDS011;2210;51.938;8.488;2023-01-29T02:40:16;23.00;;;17.80;;
4391;SDS011;2210;51.938;8.488;2023-01-29T02:44:33;21.70;;;15.57;;
4391;SDS011;2210;51.938;8.488;2023-01-29T02:53:34;23.10;;;17.10;;
4391;SDS011;2210;51.938;8.488;2023-01-29T02:57:40;21.60;;;16.23;;
4391;SDS011;2210;51.938;8.488;2023-01-29T03:01:45;18.77;;;15.23;;
4391;SDS011;2210;51.938;8.488;2023-01-29T03:15:07;21.50;;;16.43;;
4391;SDS011;2210;51.938;8.488;2023-01-29T03:19:12;20.60;;;15.50;;
4391;SDS011;2210;51.938;8.488;2023-01-29T03:23:24;23.20;;;16.67;;
4391;SDS011;2210;51.938;8.488;2023-01-29T03:27:52;22.60;;;14.60;;
4391;SDS011;2210;51.938;8.488;2023-01-29T03:32:16;21.50;;;16.07;;
4391;SDS011;2210;51.938;8.488;2023-01-29T03:36:40;21.57;;;16.57;;
4391;SDS011;2210;51.938;8.488;2023-01-29T03:49:14;19.77;;;15.43;;
4391;SDS011;2210;51.938;8.488;2023-01-29T03:58:04;22.10;;;15.23;;
4391;SDS011;2210;51.938;8.488;2023-01-29T04:02:11;20.63;;;15.20;;
4391;SDS011;2210;51.938;8.488;2023-01-29T04:06:16;26.20;;;16.43;;
4391;SDS011;2210;51.938;8.488;2023-01-29T04:10:21;16.43;;;13.73;;
4391;SDS011;2210;51.938;8.488;2023-01-29T04:14:28;18.53;;;14.77;;
4391;SDS011;2210;51.938;8.488;2023-01-29T04:18:33;21.90;;;17.30;;
4391;SDS011;2210;51.938;8.488;2023-01-29T04:22:36;19.00;;;14.63;;
4391;SDS011;2210;51.938;8.488;2023-01-29T04:31:07;22.17;;;15.60;;
4391;SDS011;2210;51.938;8.488;2023-01-29T04:35:15;20.60;;;16.33;;
4391;SDS011;2210;51.938;8.488;2023-01-29T04:39:37;22.30;;;16.63;;
4391;SDS011;2210;51.938;8.488;2023-01-29T04:48:04;22.17;;;15.50;;
4391;SDS011;2210;51.938;8.488;2023-01-29T04:52:51;22.10;;;15.40;;
4391;SDS011;2210;51.938;8.488;2023-01-29T05:01:25;21.73;;;15.73;;
4391;SDS011;2210;51.938;8.488;2023-01-29T05:05:31;22.90;;;17.47;;
4391;SDS011;2210;51.938;8.488;2023-01-29T05:09:41;20.10;;;15.03;;
4391;SDS011;2210;51.938;8.488;2023-01-29T05:13:47;22.60;;;16.90;;
4391;SDS011;2210;51.938;8.488;2023-01-29T05:17:54;24.97;;;17.00;;
4391;SDS011;2210;51.938;8.488;2023-01-29T05:22:00;27.73;;;16.77;;
4391;SDS011;2210;51.938;8.488;2023-01-29T05:26:07;23.23;;;16.87;;
4391;SDS011;2210;51.938;8.488;2023-01-29T05:30:10;25.47;;;18.43;;
4391;SDS011;2210;51.938;8.488;2023-01-29T05:34:11;23.63;;;17.63;;
4391;SDS011;2210;51.938;8.488;2023-01-29T05:38:11;24.77;;;17.87;;
4391;SDS011;2210;51.938;8.488;2023-01-29T05:42:15;24.30;;;17.23;;
4391;SDS011;2210;51.938;8.488;2023-01-29T05:46:15;22.43;;;17.13;;
4391;SDS011;2210;51.938;8.488;2023-01-29T05:50:15;24.97;;;17.50;;
4391;SDS011;2210;51.938;8.488;2023-01-29T05:54:16;21.03;;;16.07;;
4391;SDS011;2210;51.938;8.488;2023-01-29T05:58:16;22.27;;;16.43;;
4391;SDS011;2210;51.938;8.488;2023-01-29T06:02:33;24.47;;;18.57;;
4391;SDS011;2210;51.938;8.488;2023-01-29T06:06:33;19.40;;;15.43;;
4391;SDS011;2210;51.938;8.488;2023-01-29T06:10:34;20.00;;;14.93;;
4391;SDS011;2210;51.938;8.488;2023-01-29T06:14:34;24.70;;;17.13;;
4391;SDS011;2210;51.938;8.488;2023-01-29T06:18:35;25.30;;;18.93;;
4391;SDS011;2210;51.938;8.488;2023-01-29T06:22:45;25.23;;;18.13;;
4391;SDS011;2210;51.938;8.488;2023-01-29T06:26:45;26.53;;;19.43;;
4391;SDS011;2210;51.938;8.488;2023-01-29T06:30:45;24.50;;;16.80;;
4391;SDS011;2210;51.938;8.488;2023-01-29T06:34:46;25.00;;;17.60;;
4391;SDS011;2210;51.938;8.488;2023-01-29T06:38:46;25.30;;;19.00;;
4391;SDS011;2210;51.938;8.488;2023-01-29T06:42:47;28.07;;;17.83;;
4391;SDS011;2210;51.938;8.488;2023-01-29T06:46:47;20.33;;;14.85;;
4391;SDS011;2210;51.938;8.488;2023-01-29T06:50:47;24.60;;;16.70;;
4391;SDS011;2210;51.938;8.488;2023-01-29T06:54:50;22.20;;;16.90;;
4391;SDS011;2210;51.938;8.488;2023-01-29T06:58:51;28.30;;;18.53;;
4391;SDS011;2210;51.938;8.488;2023-01-29T07:02:51;27.47;;;18.70;;
4391;SDS011;2210;51.938;8.488;2023-01-29T07:06:51;25.85;;;18.60;;
4391;SDS011;2210;51.938;8.488;2023-01-29T07:11:07;27.60;;;18.65;;
4391;SDS011;2210;51.938;8.488;2023-01-29T07:15:10;21.90;;;15.97;;
4391;SDS011;2210;51.938;8.488;2023-01-29T07:19:14;26.20;;;19.37;;
4391;SDS011;2210;51.938;8.488;2023-01-29T07:23:14;27.57;;;20.37;;
4391;SDS011;2210;51.938;8.488;2023-01-29T07:27:16;27.40;;;19.00;;
4391;SDS011;2210;51.938;8.488;2023-01-29T07:31:19;26.43;;;18.83;;
4391;SDS011;2210;51.938;8.488;2023-01-29T07:35:22;29.03;;;20.10;;
4391;SDS011;2210;51.938;8.488;2023-01-29T07:39:22;26.57;;;18.10;;
4391;SDS011;2210;51.938;8.488;2023-01-29T07:43:25;28.50;;;19.67;;
4391;SDS011;2210;51.938;8.488;2023-01-29T07:47:26;28.27;;;19.67;;
4391;SDS011;2210;51.938;8.488;2023-01-29T07:51:26;26.02;;;19.38;;
4391;SDS011;2210;51.938;8.488;2023-01-29T07:55:26;27.58;;;20.10;;
4391;SDS011;2210;51.938;8.488;2023-01-29T07:59:30;26.23;;;20.20;;
4391;SDS011;2210;51.938;8.488;2023-01-29T08:03:30;24.60;;;18.37;;
4391;SDS011;2210;51.938;8.488;2023-01-29T08:07:30;24.60;;;17.35;;
4391;SDS011;2210;51.938;8.488;2023-01-29T08:11:30;27.77;;;19.97;;
4391;SDS011;2210;51.938;8.488;2023-01-29T08:15:34;26.37;;;19.80;;
4391;SDS011;2210;51.938;8.488;2023-01-29T08:19:35;27.40;;;19.77;;
4391;SDS011;2210;51.938;8.488;2023-01-29T08:23:35;23.88;;;16.52;;
4391;SDS011;2210;51.938;8.488;2023-01-29T08:27:35;25.38;;;18.38;;
4391;SDS011;2210;51.938;8.488;2023-01-29T08:31:35;27.93;;;20.37;;
4391;SDS011;2210;51.938;8.488;2023-01-29T08:35:36;26.53;;;19.90;;
4391;SDS011;2210;51.938;8.488;2023-01-29T08:39:36;27.37;;;20.10;;
4391;SDS011;2210;51.938;8.488;2023-01-29T08:43:36;28.33;;;20.77;;
4391;SDS011;2210;51.938;8.488;2023-01-29T08:47:37;30.27;;;20.77;;
4391;SDS011;2210;51.938;8.488;2023-01-29T08:51:37;29.80;;;21.88;;
4391;SDS011;2210;51.938;8.488;2023-01-29T08:55:40;28.83;;;19.93;;
4391;SDS011;2210;51.938;8.488;2023-01-29T08:59:41;31.40;;;21.57;;
4391;SDS011;2210;51.938;8.488;2023-01-29T09:03:41;34.47;;;22.67;;
4391;SDS011;2210;51.938;8.488;2023-01-29T09:07:43;33.00;;;22.17;;
4391;SDS011;2210;51.938;8.488;2023-01-29T09:11:46;33.00;;;21.13;;
4391;SDS011;2210;51.938;8.488;2023-01-29T09:15:49;28.17;;;20.87;;
4391;SDS011;2210;51.938;8.488;2023-01-29T09:19:49;34.30;;;22.40;;
4391;SDS011;2210;51.938;8.488;2023-01-29T09:23:51;33.70;;;23.33;;
4391;SDS011;2210;51.938;8.488;2023-01-29T09:27:58;33.30;;;23.40;;
4391;SDS011;2210;51.938;8.488;2023-01-29T09:31:58;32.40;;;21.87;;
4391;SDS011;2210;51.938;8.488;2023-01-29T09:36:00;33.33;;;24.08;;
4391;SDS011;2210;51.938;8.488;2023-01-29T09:40:02;29.93;;;21.30;;
4391;SDS011;2210;51.938;8.488;2023-01-29T09:44:03;32.50;;;23.53;;
4391;SDS011;2210;51.938;8.488;2023-01-29T09:48:13;34.97;;;21.77;;
4391;SDS011;2210;51.938;8.488;2023-01-29T09:52:16;31.37;;;20.83;;
4391;SDS011;2210;51.938;8.488;2023-01-29T09:56:20;31.63;;;22.83;;
4391;SDS011;2210;51.938;8.488;2023-01-29T10:00:38;32.60;;;21.73;;
4391;SDS011;2210;51.938;8.488;2023-01-29T10:05:01;36.20;;;22.20;;
4391;SDS011;2210;51.938;8.488;2023-01-29T10:13:39;29.77;;;18.40;;
4391;SDS011;2210;51.938;8.488;2023-01-29T10:17:56;30.47;;;21.13;;
4391;SDS011;2210;51.938;8.488;2023-01-29T10:26:42;23.87;;;18.13;;
4391;SDS011;2210;51.938;8.488;2023-01-29T10:30:45;31.10;;;21.37;;
4391;SDS011;2210;51.938;8.488;2023-01-29T10:34:51;26.80;;;20.10;;
4391;SDS011;2210;51.938;8.488;2023-01-29T10:38:55;26.23;;;18.20;;
4391;SDS011;2210;51.938;8.488;2023-01-29T10:47:37;30.70;;;20.63;;
4391;SDS011;2210;51.938;8.488;2023-01-29T10:56:11;26.60;;;18.10;;
4391;SDS011;2210;51.938;8.488;2023-01-29T11:00:23;30.73;;;18.90;;
4391;SDS011;2210;51.938;8.488;2023-01-29T11:04:27;27.23;;;19.00;;
4391;SDS011;2210;51.938;8.488;2023-01-29T11:08:29;26.50;;;17.67;;
4391;SDS011;2210;51.938;8.488;2023-01-29T11:12:39;34.43;;;24.27;;
4391;SDS011;2210;51.938;8.488;2023-01-29T11:16:46;24.37;;;17.37;;
4391;SDS011;2210;51.938;8.488;2023-01-29T11:21:02;28.10;;;20.67;;
4391;SDS011;2210;51.938;8.488;2023-01-29T11:25:19;26.43;;;18.73;;
4391;SDS011;2210;51.938;8.488;2023-01-29T11:33:29;28.07;;;19.63;;
4391;SDS011;2210;51.938;8.488;2023-01-29T11:37:33;29.80;;;21.70;;
4391;SDS011;2210;51.938;8.488;2023-01-29T11:41:41;26.10;;;18.13;;
4391;SDS011;2210;51.938;8.488;2023-01-29T11:45:43;22.23;;;16.50;;
4391;SDS011;2210;51.938;8.488;2023-01-29T11:49:46;28.47;;;18.10;;
4391;SDS011;2210;51.938;8.488;2023-01-29T11:53:53;31.40;;;19.07;;
4391;SDS011;2210;51.938;8.488;2023-01-29T12:02:29;27.47;;;19.70;;
4391;SDS011;2210;51.938;8.488;2023-01-29T12:06:34;26.70;;;19.37;;
4391;SDS011;2210;51.938;8.488;2023-01-29T12:10:45;26.63;;;19.63;;
4391;SDS011;2210;51.938;8.488;2023-01-29T12:14:46;30.70;;;22.80;;
4391;SDS011;2210;51.938;8.488;2023-01-29T12:33:13;24.00;;;16.90;;
4391;SDS011;2210;51.938;8.488;2023-01-29T12:42:01;23.57;;;15.93;;
4391;SDS011;2210;51.938;8.488;2023-01-29T12:50:41;21.43;;;16.13;;
4391;SDS011;2210;51.938;8.488;2023-01-29T13:04:05;21.37;;;15.63;;
4391;SDS011;2210;51.938;8.488;2023-01-29T13:08:36;19.67;;;14.93;;
4391;SDS011;2210;51.938;8.488;2023-01-29T13:12:44;20.47;;;14.73;;
4391;SDS011;2210;51.938;8.488;2023-01-29T13:16:53;19.73;;;14.97;;
4391;SDS011;2210;51.938;8.488;2023-01-29T13:21:02;24.17;;;15.00;;
4391;SDS011;2210;51.938;8.488;2023-01-29T13:29:24;24.63;;;18.10;;
4391;SDS011;2210;51.938;8.488;2023-01-29T13:33:26;44.90;;;28.13;;
4391;SDS011;2210;51.938;8.488;2023-01-29T13:37:31;28.30;;;19.03;;
4391;SDS011;2210;51.938;8.488;2023-01-29T13:41:35;22.47;;;16.60;;
4391;SDS011;2210;51.938;8.488;2023-01-29T13:45:56;23.93;;;18.23;;
4391;SDS011;2210;51.938;8.488;2023-01-29T13:54:26;25.77;;;16.37;;
4391;SDS011;2210;51.938;8.488;2023-01-29T14:02:30;23.57;;;17.30;;
4391;SDS011;2210;51.938;8.488;2023-01-29T14:06:35;23.17;;;16.80;;
4391;SDS011;2210;51.938;8.488;2023-01-29T14:10:42;25.10;;;17.47;;
4391;SDS011;2210;51.938;8.488;2023-01-29T14:19:05;24.53;;;17.40;;
4391;SDS011;2210;51.938;8.488;2023-01-29T14:23:05;25.03;;;18.13;;
4391;SDS011;2210;51.938;8.488;2023-01-29T14:27:25;22.40;;;17.30;;
4391;SDS011;2210;51.938;8.488;2023-01-29T14:31:27;24.57;;;17.40;;
4391;SDS011;2210;51.938;8.488;2023-01-29T14:35:47;20.10;;;15.00;;
4391;SDS011;2210;51.938;8.488;2023-01-29T14:39:56;26.30;;;19.03;;
4391;SDS011;2210;51.938;8.488;2023-01-29T14:48:45;22.67;;;16.67;;
4391;SDS011;2210;51.938;8.488;2023-01-29T14:57:35;21.57;;;17.10;;
4391;SDS011;2210;51.938;8.488;2023-01-29T15:01:36;21.87;;;16.40;;
4391;SDS011;2210;51.938;8.488;2023-01-29T15:14:47;23.77;;;15.63;;
4391;SDS011;2210;51.938;8.488;2023-01-29T15:24:02;21.17;;;15.87;;
4391;SDS011;2210;51.938;8.488;2023-01-29T15:28:08;17.60;;;14.27;;
4391;SDS011;2210;51.938;8.488;2023-01-29T15:32:12;24.03;;;16.30;;
4391;SDS011;2210;51.938;8.488;2023-01-29T15:36:28;22.00;;;15.50;;
4391;SDS011;2210;51.938;8.488;2023-01-29T15:40:39;25.40;;;17.10;;
4391;SDS011;2210;51.938;8.488;2023-01-29T15:44:43;20.57;;;14.97;;
4391;SDS011;2210;51.938;8.488;2023-01-29T15:48:45;20.07;;;13.87;;
4391;SDS011;2210;51.938;8.488;2023-01-29T15:52:48;23.20;;;16.40;;
4391;SDS011;2210;51.938;8.488;2023-01-29T15:56:51;19.47;;;13.40;;
4391;SDS011;2210;51.938;8.488;2023-01-29T16:00:56;18.40;;;14.43;;
4391;SDS011;2210;51.938;8.488;2023-01-29T16:09:27;24.47;;;15.17;;
4391;SDS011;2210;51.938;8.488;2023-01-29T16:13:35;22.97;;;15.30;;
4391;SDS011;2210;51.938;8.488;2023-01-29T16:17:44;18.37;;;14.80;;
4391;SDS011;2210;51.938;8.488;2023-01-29T16:21:45;19.07;;;14.93;;
4391;SDS011;2210;51.938;8.488;2023-01-29T16:26:02;22.50;;;14.60;;
4391;SDS011;2210;51.938;8.488;2023-01-29T16:30:12;19.13;;;14.37;;
4391;SDS011;2210;51.938;8.488;2023-01-29T16:34:24;19.70;;;13.83;;
4391;SDS011;2210;51.938;8.488;2023-01-29T16:38:29;20.03;;;14.47;;
4391;SDS011;2210;51.938;8.488;2023-01-29T16:42:38;23.67;;;14.77;;
4391;SDS011;2210;51.938;8.488;2023-01-29T16:46:44;19.80;;;15.40;;
4391;SDS011;2210;51.938;8.488;2023-01-29T16:51:01;20.73;;;15.07;;
4391;SDS011;2210;51.938;8.488;2023-01-29T16:55:21;21.40;;;15.53;;
4391;SDS011;2210;51.938;8.488;2023-01-29T16:59:25;16.10;;;12.40;;
4391;SDS011;2210;51.938;8.488;2023-01-29T17:03:31;21.33;;;14.23;;
4391;SDS011;2210;51.938;8.488;2023-01-29T17:07:43;18.10;;;12.80;;
4391;SDS011;2210;51.938;8.488;2023-01-29T17:11:45;20.10;;;15.70;;
4391;SDS011;2210;51.938;8.488;2023-01-29T17:15:49;20.23;;;14.43;;
4391;SDS011;2210;51.938;8.488;2023-01-29T17:19:49;17.08;;;13.95;;
4391;SDS011;2210;51.938;8.488;2023-01-29T17:23:50;19.42;;;13.38;;
4391;SDS011;2210;51.938;8.488;2023-01-29T17:27:58;22.10;;;15.57;;
4391;SDS011;2210;51.938;8.488;2023-01-29T17:32:03;26.00;;;13.77;;
4391;SDS011;2210;51.938;8.488;2023-01-29T17:36:04;21.37;;;15.20;;
4391;SDS011;2210;51.938;8.488;2023-01-29T17:40:09;18.77;;;13.70;;
4391;SDS011;2210;51.938;8.488;2023-01-29T17:44:17;20.50;;;14.73;;
4391;SDS011;2210;51.938;8.488;2023-01-29T17:48:33;20.63;;;14.27;;
4391;SDS011;2210;51.938;8.488;2023-01-29T17:52:33;28.13;;;18.90;;
4391;SDS011;2210;51.938;8.488;2023-01-29T17:56:34;21.77;;;14.73;;
4391;SDS011;2210;51.938;8.488;2023-01-29T18:00:44;21.37;;;13.70;;
4391;SDS011;2210;51.938;8.488;2023-01-29T18:04:51;19.70;;;14.50;;
4391;SDS011;2210;51.938;8.488;2023-01-29T18:08:51;18.83;;;12.87;;
4391;SDS011;2210;51.938;8.488;2023-01-29T18:12:54;16.97;;;13.20;;
4391;SDS011;2210;51.938;8.488;2023-01-29T18:16:55;17.83;;;12.50;;
4391;SDS011;2210;51.938;8.488;2023-01-29T18:20:55;20.30;;;13.95;;
4391;SDS011;2210;51.938;8.488;2023-01-29T18:24:58;21.92;;;16.00;;
4391;SDS011;2210;51.938;8.488;2023-01-29T18:29:02;21.53;;;15.00;;
4391;SDS011;2210;51.938;8.488;2023-01-29T18:33:02;23.40;;;16.60;;
4391;SDS011;2210;51.938;8.488;2023-01-29T18:37:03;24.93;;;16.90;;
4391;SDS011;2210;51.938;8.488;2023-01-29T18:41:15;23.20;;;15.53;;
4391;SDS011;2210;51.938;8.488;2023-01-29T18:45:15;20.60;;;15.60;;
4391;SDS011;2210;51.938;8.488;2023-01-29T18:49:28;22.30;;;15.57;;
4391;SDS011;2210;51.938;8.488;2023-01-29T18:53:28;20.90;;;14.00;;
4391;SDS011;2210;51.938;8.488;2023-01-29T18:57:28;21.45;;;13.55;;
4391;SDS011;2210;51.938;8.488;2023-01-29T19:01:29;19.80;;;13.83;;
4391;SDS011;2210;51.938;8.488;2023-01-29T19:05:34;21.87;;;15.67;;
4391;SDS011;2210;51.938;8.488;2023-01-29T19:09:34;17.60;;;13.93;;
4391;SDS011;2210;51.938;8.488;2023-01-29T19:13:35;22.20;;;16.00;;
4391;SDS011;2210;51.938;8.488;2023-01-29T19:17:36;26.93;;;18.93;;
4391;SDS011;2210;51.938;8.488;2023-01-29T19:21:40;31.67;;;21.17;;
4391;SDS011;2210;51.938;8.488;2023-01-29T19:25:43;30.60;;;19.67;;
4391;SDS011;2210;51.938;8.488;2023-01-29T19:29:44;29.40;;;17.77;;
4391;SDS011;2210;51.938;8.488;2023-01-29T19:33:47;21.65;;;15.52;;
4391;SDS011;2210;51.938;8.488;2023-01-29T19:37:50;17.17;;;13.13;;
4391;SDS011;2210;51.938;8.488;2023-01-29T19:41:51;19.87;;;14.20;;
4391;SDS011;2210;51.938;8.488;2023-01-29T19:45:58;18.80;;;13.73;;
4391;SDS011;2210;51.938;8.488;2023-01-29T19:49:59;20.87;;;15.33;;
4391;SDS011;2210;51.938;8.488;2023-01-29T19:54:02;19.07;;;14.23;;
4391;SDS011;2210;51.938;8.488;2023-01-29T19:58:18;19.50;;;13.90;;
4391;SDS011;2210;51.938;8.488;2023-01-29T20:02:24;19.57;;;13.43;;
4391;SDS011;2210;51.938;8.488;2023-01-29T20:06:32;18.93;;;13.23;;
4391;SDS011;2210;51.938;8.488;2023-01-29T20:10:33;20.23;;;15.17;;
4391;SDS011;2210;51.938;8.488;2023-01-29T20:14:33;20.00;;;13.00;;
4391;SDS011;2210;51.938;8.488;2023-01-29T20:18:33;19.67;;;12.93;;
4391;SDS011;2210;51.938;8.488;2023-01-29T20:22:33;20.85;;;12.48;;
4391;SDS011;2210;51.938;8.488;2023-01-29T20:26:34;17.83;;;12.10;;
4391;SDS011;2210;51.938;8.488;2023-01-29T20:30:44;19.27;;;13.40;;
4391;SDS011;2210;51.938;8.488;2023-01-29T20:34:44;18.00;;;13.00;;
4391;SDS011;2210;51.938;8.488;2023-01-29T20:38:51;19.23;;;13.53;;
4391;SDS011;2210;51.938;8.488;2023-01-29T20:42:54;16.37;;;12.87;;
4391;SDS011;2210;51.938;8.488;2023-01-29T20:46:58;14.60;;;11.53;;
4391;SDS011;2210;51.938;8.488;2023-01-29T20:51:14;14.40;;;11.60;;
4391;SDS011;2210;51.938;8.488;2023-01-29T20:55:19;17.83;;;13.50;;
4391;SDS011;2210;51.938;8.488;2023-01-29T20:59:28;17.67;;;12.87;;
4391;SDS011;2210;51.938;8.488;2023-01-29T21:03:29;19.97;;;14.27;;
4391;SDS011;2210;51.938;8.488;2023-01-29T21:07:33;16.98;;;12.57;;
4391;SDS011;2210;51.938;8.488;2023-01-29T21:11:43;14.97;;;12.83;;
4391;SDS011;2210;51.938;8.488;2023-01-29T21:15:44;14.60;;;10.67;;
4391;SDS011;2210;51.938;8.488;2023-01-29T21:19:47;17.40;;;12.40;;
4391;SDS011;2210;51.938;8.488;2023-01-29T21:23:53;16.43;;;11.00;;
4391;SDS011;2210;51.938;8.488;2023-01-29T21:27:56;16.80;;;12.10;;
4391;SDS011;2210;51.938;8.488;2023-01-29T21:31:57;16.57;;;11.80;;
4391;SDS011;2210;51.938;8.488;2023-01-29T21:35:57;17.80;;;11.60;;
4391;SDS011;2210;51.938;8.488;2023-01-29T21:40:01;15.63;;;12.30;;
4391;SDS011;2210;51.938;8.488;2023-01-29T21:44:02;15.27;;;11.63;;
4391;SDS011;2210;51.938;8.488;2023-01-29T21:48:05;13.90;;;11.73;;
4391;SDS011;2210;51.938;8.488;2023-01-29T21:52:06;14.40;;;11.10;;
4391;SDS011;2210;51.938;8.488;2023-01-29T21:56:07;16.83;;;11.90;;
4391;SDS011;2210;51.938;8.488;2023-01-29T22:00:10;16.13;;;11.52;;
4391;SDS011;2210;51.938;8.488;2023-01-29T22:04:11;18.37;;;11.90;;
4391;SDS011;2210;51.938;8.488;2023-01-29T22:08:11;17.43;;;12.30;;
4391;SDS011;2210;51.938;8.488;2023-01-29T22:12:11;13.90;;;11.20;;
4391;SDS011;2210;51.938;8.488;2023-01-29T22:16:12;16.15;;;12.30;;
4391;SDS011;2210;51.938;8.488;2023-01-29T22:20:15;13.77;;;10.73;;
4391;SDS011;2210;51.938;8.488;2023-01-29T22:24:19;14.53;;;10.60;;
4391;SDS011;2210;51.938;8.488;2023-01-29T22:28:25;16.37;;;13.00;;
4391;SDS011;2210;51.938;8.488;2023-01-29T22:32:30;19.30;;;14.43;;
4391;SDS011;2210;51.938;8.488;2023-01-29T22:36:36;15.13;;;12.20;;
4391;SDS011;2210;51.938;8.488;2023-01-29T22:40:37;16.30;;;12.07;;
4391;SDS011;2210;51.938;8.488;2023-01-29T22:44:44;16.60;;;13.23;;
4391;SDS011;2210;51.938;8.488;2023-01-29T22:48:44;15.87;;;11.93;;
4391;SDS011;2210;51.938;8.488;2023-01-29T22:52:45;21.67;;;12.30;;
4391;SDS011;2210;51.938;8.488;2023-01-29T22:56:52;16.20;;;12.07;;
4391;SDS011;2210;51.938;8.488;2023-01-29T23:00:52;19.67;;;14.40;;
4391;SDS011;2210;51.938;8.488;2023-01-29T23:04:53;16.10;;;11.90;;
4391;SDS011;2210;51.938;8.488;2023-01-29T23:08:56;19.33;;;13.43;;
4391;SDS011;2210;51.938;8.488;2023-01-29T23:12:56;23.77;;;13.63;;
4391;SDS011;2210;51.938;8.488;2023-01-29T23:17:02;20.20;;;13.43;;
4391;SDS011;2210;51.938;8.488;2023-01-29T23:21:05;19.30;;;12.87;;
4391;SDS011;2210;51.938;8.488;2023-01-29T23:25:06;19.97;;;14.07;;
4391;SDS011;2210;51.938;8.488;2023-01-29T23:29:07;17.70;;;13.13;;
4391;SDS011;2210;51.938;8.488;2023-01-29T23:33:08;19.10;;;13.77;;
4391;SDS011;2210;51.938;8.488;2023-01-29T23:37:08;22.10;;;15.33;;
4391;SDS011;2210;51.938;8.488;2023-01-29T23:41:08;18.73;;;13.70;;
4391;SDS011;2210;51.938;8.488;2023-01-29T23:45:18;20.02;;;15.23;;
4391;SDS011;2210;51.938;8.488;2023-01-29T23:49:18;16.63;;;10.53;;
4391;SDS011;2210;51.938;8.488;2023-01-29T23:53:18;20.00;;;14.50;;
4391;SDS011;2210;51.938;8.488;2023-01-29T23:57:22;19.10;;;13.10;;
